MSC Giovanna — 3FRB9 — position and weather

sailwx.info

Track history (hours):
 
Tides and Currents Weather Stations Pressure Air Temp Water Temp Dewpoint Dewpoint Depression Visibility Wind Speed Wind Dir Waves Ship Positions

MSC Giovanna

Last reported at 2016-Jun-24 21:33 UTC. Time now 2016-Jun-24 23:56 UTC.
Position N 31°10' E 029°50'.

Length 178 m; draft 10.2 m.

Type: Ship. MMSI: 357702000.

Date/timePositionNaut miles runAvg speedWind from/ knotsBaromVisibWave heightAir tempDewpointWater temp
2016-Jun-24 21:33N 31°10' E 029°50'5 2.3
2016-Jun-24 19:33N 31°13' E 029°47'0 0.0
2016-Jun-24 18:14N 31°13' E 029°47'  
2016-Jun-22 04:27N 31°47' E 030°19'4414.1
2016-Jun-22 01:19N 32°06' E 031°06'1114.4
2016-Jun-22 00:32N 32°09' E 031°18'2914.8
2016-Jun-21 22:33N 32°20' E 031°50'1514.7
2016-Jun-21 21:33N 32°25' E 032°07'1514.6
2016-Jun-21 20:34N 32°30' E 032°23'1514.6
2016-Jun-21 19:30N 32°36' E 032°40'1414.7
2016-Jun-21 18:32N 32°41' E 032°55'1614.8
2016-Jun-21 17:27N 32°47' E 033°13'1314.6
2016-Jun-21 16:33N 32°52' E 033°28'1414.4
2016-Jun-21 15:33N 32°57' E 033°44'1413.9
2016-Jun-21 14:33N 33°02' E 033°59'1313.5
2016-Jun-21 13:33N 32°59' E 034°15'1313.3
2016-Jun-21 12:34N 32°57' E 034°31'1413.6
2016-Jun-21 11:34N 32°55' E 034°47'1313.0
2016-Jun-21 10:34N 32°51' E 035°01'1 1.3
2016-Jun-21 09:26N 32°49' E 035°01'0 0.0
2016-Jun-21 08:33N 32°49' E 035°01'0 0.0
2016-Jun-21 07:28N 32°49' E 035°01'0 0.0
2016-Jun-21 05:33N 32°49' E 035°01'0 0.0
2016-Jun-21 04:31N 32°49' E 035°01'0 0.0
2016-Jun-21 03:32N 32°49' E 035°01'0 0.0
2016-Jun-21 02:18N 32°49' E 035°01'0 0.0
2016-Jun-21 01:32N 32°49' E 035°01'0 0.0
2016-Jun-21 00:32N 32°49' E 035°01'0 0.0
2016-Jun-20 23:30N 32°49' E 035°01'0 0.0
2016-Jun-20 22:30N 32°49' E 035°01'0 0.0
2016-Jun-20 21:25N 32°49' E 035°01'0 0.0
2016-Jun-20 20:33N 32°49' E 035°01'0 0.0
2016-Jun-20 19:31N 32°49' E 035°01'1 1.1
2016-Jun-20 18:33N 32°50' E 035°01'5 4.8
2016-Jun-20 17:33N 32°52' E 034°56'1110.8
2016-Jun-20 16:33N 32°44' E 034°48'1414.2
2016-Jun-20 15:33N 32°30' E 034°43'1414.1
2016-Jun-20 14:34N 32°17' E 034°37'1414.2
2016-Jun-20 13:33N 32°03' E 034°32'1211.7
2016-Jun-20 12:33N 31°52' E 034°36'3 3.4
2016-Jun-20 11:33N 31°50' E 034°38'0 0.0
2016-Jun-20 10:33N 31°50' E 034°38'0 0.0
2016-Jun-20 09:31N 31°50' E 034°38'0 0.0
2016-Jun-20 08:15N 31°50' E 034°38'0 0.0
2016-Jun-20 07:30N 31°50' E 034°38'0 0.0
2016-Jun-19 22:12N 31°50' E 034°38'0 0.0
2016-Jun-19 21:23N 31°50' E 034°38'0 0.0
2016-Jun-19 20:23N 31°50' E 034°38'0 0.0
2016-Jun-19 17:26N 31°50' E 034°38'0 0.0
2016-Jun-19 16:33N 31°50' E 034°38'0 0.0
2016-Jun-19 15:27N 31°50' E 034°38'0 0.0
2016-Jun-19 14:32N 31°50' E 034°38'0 0.0
2016-Jun-19 13:32N 31°50' E 034°38'0 0.0
2016-Jun-19 12:32N 31°50' E 034°38'0 0.0
2016-Jun-19 11:28N 31°50' E 034°38'0 0.0
2016-Jun-19 10:32N 31°50' E 034°38'0 0.0
2016-Jun-19 09:29N 31°50' E 034°38'0 0.0
2016-Jun-18 21:09N 31°50' E 034°38'0 0.0
2016-Jun-18 20:33N 31°50' E 034°38'0 0.0
2016-Jun-18 19:33N 31°50' E 034°38'0 0.0
2016-Jun-18 18:33N 31°50' E 034°38'1 1.3
2016-Jun-18 17:30N 31°51' E 034°38'5 5.1
2016-Jun-18 16:33N 31°52' E 034°33'1111.1
2016-Jun-18 15:33N 31°56' E 034°20'1413.9
2016-Jun-18 14:33N 32°03' E 034°06'1414.2
2016-Jun-18 13:33N 32°17' E 034°08'1514.6
2016-Jun-18 12:34N 32°31' E 034°11'1514.5
2016-Jun-18 11:33N 32°46' E 034°14'1514.6
2016-Jun-18 10:33N 33°00' E 034°16'1414.4
2016-Jun-18 09:33N 33°14' E 034°18'1414.3
2016-Jun-18 08:33N 33°29' E 034°21'1414.0
2016-Jun-18 07:33N 33°42' E 034°23'1714.0
2016-Jun-18 06:19N 33°59' E 034°26'1113.9
2016-Jun-18 05:33N 34°10' E 034°28'3313.9
2016-Jun-18 03:09N 34°43' E 034°33'2514.6
2016-Jun-18 01:24N 35°08' E 034°37'1214.2
2016-Jun-18 00:33N 35°20' E 034°40'3314.4
2016-Jun-17 22:17N 35°53' E 034°43'1114.2
2016-Jun-17 21:33N 36°03' E 034°42'1414.1
2016-Jun-17 20:33N 36°17' E 034°41'2814.0
2016-Jun-17 18:31N 36°46' E 034°40'  
Track history (hours):
 
Tides and Currents Weather Stations Pressure Air Temp Water Temp Dewpoint Dewpoint Depression Visibility Wind Speed Wind Dir Waves Ship Positions

MSC Giovanna

Last reported at 2016-Jun-24 21:33 UTC. Time now 2016-Jun-24 23:56 UTC.
Position N 31°10' E 029°50'.

Length 178 m; draft 10.2 m.

Type: Ship. MMSI: 357702000.

Date/timePositionNaut miles runAvg speedWind from/ knotsBaromVisibWave heightAir tempDewpointWater temp
2016-Jun-24 21:33N 31°10' E 029°50'5 2.3
2016-Jun-24 19:33N 31°13' E 029°47'0 0.0
2016-Jun-24 18:14N 31°13' E 029°47'  
2016-Jun-22 04:27N 31°47' E 030°19'4414.1
2016-Jun-22 01:19N 32°06' E 031°06'1114.4
2016-Jun-22 00:32N 32°09' E 031°18'2914.8
2016-Jun-21 22:33N 32°20' E 031°50'1514.7
2016-Jun-21 21:33N 32°25' E 032°07'1514.6
2016-Jun-21 20:34N 32°30' E 032°23'1514.6
2016-Jun-21 19:30N 32°36' E 032°40'1414.7
2016-Jun-21 18:32N 32°41' E 032°55'1614.8
2016-Jun-21 17:27N 32°47' E 033°13'1314.6
2016-Jun-21 16:33N 32°52' E 033°28'1414.4
2016-Jun-21 15:33N 32°57' E 033°44'1413.9
2016-Jun-21 14:33N 33°02' E 033°59'1313.5
2016-Jun-21 13:33N 32°59' E 034°15'1313.3
2016-Jun-21 12:34N 32°57' E 034°31'1413.6
2016-Jun-21 11:34N 32°55' E 034°47'1313.0
2016-Jun-21 10:34N 32°51' E 035°01'1 1.3
2016-Jun-21 09:26N 32°49' E 035°01'0 0.0
2016-Jun-21 08:33N 32°49' E 035°01'0 0.0
2016-Jun-21 07:28N 32°49' E 035°01'0 0.0
2016-Jun-21 05:33N 32°49' E 035°01'0 0.0
2016-Jun-21 04:31N 32°49' E 035°01'0 0.0
2016-Jun-21 03:32N 32°49' E 035°01'0 0.0
2016-Jun-21 02:18N 32°49' E 035°01'0 0.0
2016-Jun-21 01:32N 32°49' E 035°01'0 0.0
2016-Jun-21 00:32N 32°49' E 035°01'0 0.0
2016-Jun-20 23:30N 32°49' E 035°01'0 0.0
2016-Jun-20 22:30N 32°49' E 035°01'0 0.0
2016-Jun-20 21:25N 32°49' E 035°01'0 0.0
2016-Jun-20 20:33N 32°49' E 035°01'0 0.0
2016-Jun-20 19:31N 32°49' E 035°01'1 1.1
2016-Jun-20 18:33N 32°50' E 035°01'5 4.8
2016-Jun-20 17:33N 32°52' E 034°56'1110.8
2016-Jun-20 16:33N 32°44' E 034°48'1414.2
2016-Jun-20 15:33N 32°30' E 034°43'1414.1
2016-Jun-20 14:34N 32°17' E 034°37'1414.2
2016-Jun-20 13:33N 32°03' E 034°32'1211.7
2016-Jun-20 12:33N 31°52' E 034°36'3 3.4
2016-Jun-20 11:33N 31°50' E 034°38'0 0.0
2016-Jun-20 10:33N 31°50' E 034°38'0 0.0
2016-Jun-20 09:31N 31°50' E 034°38'0 0.0
2016-Jun-20 08:15N 31°50' E 034°38'0 0.0
2016-Jun-20 07:30N 31°50' E 034°38'0 0.0
2016-Jun-19 22:12N 31°50' E 034°38'0 0.0
2016-Jun-19 21:23N 31°50' E 034°38'0 0.0
2016-Jun-19 20:23N 31°50' E 034°38'0 0.0
2016-Jun-19 17:26N 31°50' E 034°38'0 0.0
2016-Jun-19 16:33N 31°50' E 034°38'0 0.0
2016-Jun-19 15:27N 31°50' E 034°38'0 0.0
2016-Jun-19 14:32N 31°50' E 034°38'0 0.0
2016-Jun-19 13:32N 31°50' E 034°38'0 0.0
2016-Jun-19 12:32N 31°50' E 034°38'0 0.0
2016-Jun-19 11:28N 31°50' E 034°38'0 0.0
2016-Jun-19 10:32N 31°50' E 034°38'0 0.0
2016-Jun-19 09:29N 31°50' E 034°38'0 0.0
2016-Jun-18 21:09N 31°50' E 034°38'0 0.0
2016-Jun-18 20:33N 31°50' E 034°38'0 0.0
2016-Jun-18 19:33N 31°50' E 034°38'0 0.0
2016-Jun-18 18:33N 31°50' E 034°38'1 1.3
2016-Jun-18 17:30N 31°51' E 034°38'5 5.1
2016-Jun-18 16:33N 31°52' E 034°33'1111.1
2016-Jun-18 15:33N 31°56' E 034°20'1413.9
2016-Jun-18 14:33N 32°03' E 034°06'1414.2
2016-Jun-18 13:33N 32°17' E 034°08'1514.6
2016-Jun-18 12:34N 32°31' E 034°11'1514.5
2016-Jun-18 11:33N 32°46' E 034°14'1514.6
2016-Jun-18 10:33N 33°00' E 034°16'1414.4
2016-Jun-18 09:33N 33°14' E 034°18'1414.3
2016-Jun-18 08:33N 33°29' E 034°21'1414.0
2016-Jun-18 07:33N 33°42' E 034°23'1714.0
2016-Jun-18 06:19N 33°59' E 034°26'1113.9
2016-Jun-18 05:33N 34°10' E 034°28'3313.9
2016-Jun-18 03:09N 34°43' E 034°33'2514.6
2016-Jun-18 01:24N 35°08' E 034°37'1214.2
2016-Jun-18 00:33N 35°20' E 034°40'3314.4
2016-Jun-17 22:17N 35°53' E 034°43'1114.2
2016-Jun-17 21:33N 36°03' E 034°42'1414.1
2016-Jun-17 20:33N 36°17' E 034°41'2814.0
2016-Jun-17 18:31N 36°46' E 034°40'  

Dump ship's entire track history